createdAt,value
2022-08-16T00:00:45.236Z,98168.30
2022-08-16T00:03:13.269Z,98164.83
2022-08-16T00:05:47.900Z,98160.08
2022-08-16T00:08:36.005Z,98160.11
2022-08-16T00:11:08.259Z,98160.30
2022-08-16T00:13:53.006Z,98158.64
2022-08-16T00:17:01.302Z,98153.38
2022-08-16T00:19:13.622Z,98151.00
2022-08-16T00:21:42.200Z,98149.77
2022-08-16T00:24:12.094Z,98156.05
2022-08-16T00:26:44.530Z,98158.63
2022-08-16T00:29:15.406Z,98152.10
2022-08-16T00:31:59.381Z,98151.02
2022-08-16T00:34:52.335Z,98145.61
2022-08-16T00:37:17.203Z,98141.98
2022-08-16T00:39:47.125Z,98147.56
2022-08-16T00:42:29.809Z,98147.74
2022-08-16T00:45:27.202Z,98145.00
2022-08-16T00:47:54.455Z,98144.46
2022-08-16T00:50:36.567Z,98140.99
2022-08-16T00:53:08.431Z,98135.96
2022-08-16T00:55:37.591Z,98138.28
2022-08-16T00:58:05.009Z,98139.05
2022-08-16T01:00:40.155Z,98138.17
2022-08-16T01:03:12.598Z,98134.80
2022-08-16T01:05:40.037Z,98135.09
2022-08-16T01:08:30.008Z,98128.08
2022-08-16T01:10:55.427Z,98133.14
2022-08-16T01:13:28.438Z,98139.64
2022-08-16T01:15:58.840Z,98140.36
2022-08-16T01:18:40.115Z,98141.66
2022-08-16T01:21:33.490Z,98140.09
2022-08-16T01:24:51.430Z,98140.36
2022-08-16T01:27:04.017Z,98132.23
2022-08-16T01:29:58.567Z,98126.61
2022-08-16T01:32:33.786Z,98119.98
2022-08-16T01:35:20.727Z,98107.85
2022-08-16T01:37:53.037Z,98104.66
2022-08-16T01:40:26.547Z,98098.17
2022-08-16T01:42:53.851Z,98091.91
2022-08-16T01:45:22.490Z,98089.93
2022-08-16T01:47:52.038Z,98095.55
2022-08-16T01:50:42.246Z,98091.86
2022-08-16T01:53:10.023Z,98088.45
2022-08-16T01:55:58.093Z,98078.52
2022-08-16T01:58:25.753Z,98072.42
2022-08-16T02:00:52.903Z,98069.20
2022-08-16T02:03:24.437Z,98059.69
2022-08-16T02:05:53.989Z,98054.95
2022-08-16T02:08:33.903Z,98049.55
2022-08-16T02:11:08.038Z,98044.16
2022-08-16T02:13:36.198Z,98041.68
2022-08-16T02:16:18.185Z,98030.77
2022-08-16T02:18:46.908Z,98023.08
2022-08-16T02:21:14.851Z,98020.52
2022-08-16T02:23:44.396Z,98015.05
2022-08-16T02:26:12.045Z,98012.70
2022-08-16T02:28:47.017Z,98010.91
2022-08-16T02:31:14.714Z,98001.27
2022-08-16T02:33:44.572Z,97996.57
2022-08-16T02:36:47.858Z,97993.89
2022-08-16T02:39:11.190Z,97997.23
2022-08-16T02:41:39.533Z,98007.52
2022-08-16T02:44:07.641Z,98016.30
2022-08-16T02:46:34.683Z,98019.94
2022-08-16T02:49:03.992Z,98019.40
2022-08-16T02:51:33.414Z,98021.54
2022-08-16T02:54:03.403Z,98021.08
2022-08-16T02:56:32.394Z,98032.16
2022-08-16T02:59:00.121Z,98036.41
2022-08-16T03:01:36.766Z,98031.23
2022-08-16T03:04:40.889Z,98030.81
2022-08-16T03:06:57.326Z,98032.02
2022-08-16T03:09:37.912Z,98027.72
2022-08-16T03:12:05.079Z,98031.83
2022-08-16T03:14:33.237Z,98028.89
2022-08-16T03:17:02.007Z,98030.80
2022-08-16T03:19:47.347Z,98029.13
2022-08-16T03:22:28.253Z,98029.64
2022-08-16T03:25:04.276Z,98024.13
2022-08-16T03:27:38.551Z,98022.68
2022-08-16T03:30:15.208Z,98025.14
2022-08-16T03:32:47.326Z,98024.86
2022-08-16T03:35:17.750Z,98023.02
2022-08-16T03:38:01.815Z,98023.59
2022-08-16T03:40:33.785Z,98026.11
2022-08-16T03:43:20.395Z,98028.86
2022-08-16T03:45:52.423Z,98030.41
2022-08-16T03:48:36.606Z,98040.09
2022-08-16T03:51:10.169Z,98039.38
2022-08-16T03:53:44.441Z,98042.48
2022-08-16T03:56:26.872Z,98046.92
2022-08-16T03:58:55.963Z,98051.14
2022-08-16T04:01:29.110Z,98049.95
2022-08-16T04:03:56.507Z,98051.80
2022-08-16T04:06:23.431Z,98047.27
2022-08-16T04:08:50.183Z,98042.41
2022-08-16T04:11:17.823Z,98037.98
2022-08-16T04:14:00.997Z,98038.16
2022-08-16T04:16:34.450Z,98039.61
2022-08-16T04:19:16.171Z,98035.09
2022-08-16T04:21:46.027Z,98038.30
2022-08-16T04:24:18.177Z,98030.58
2022-08-16T04:26:46.024Z,98033.33
2022-08-16T04:29:23.838Z,98032.27
2022-08-16T04:31:56.860Z,98026.23
2022-08-16T04:34:30.404Z,98024.89
2022-08-16T04:36:58.610Z,98023.52
2022-08-16T04:39:36.724Z,98027.07
2022-08-16T04:42:15.101Z,98024.46
2022-08-16T04:44:54.647Z,98022.57
2022-08-16T04:47:31.426Z,98021.14
2022-08-16T04:49:58.820Z,98018.27
2022-08-16T04:52:32.634Z,98012.45
2022-08-16T04:55:15.169Z,98012.85
2022-08-16T04:57:43.779Z,98011.66
2022-08-16T05:00:31.694Z,98012.27
2022-08-16T05:03:18.488Z,98012.74
2022-08-16T05:05:59.205Z,98018.88
2022-08-16T05:08:33.102Z,98014.86
2022-08-16T05:11:31.894Z,98024.39
2022-08-16T05:14:05.602Z,98023.04
2022-08-16T05:16:35.004Z,98027.09
2022-08-16T05:19:05.899Z,98023.70
2022-08-16T05:21:40.664Z,98016.75
2022-08-16T05:24:09.975Z,98016.95
2022-08-16T05:26:40.725Z,98019.95
2022-08-16T05:29:14.636Z,98018.37
2022-08-16T05:31:48.247Z,98017.02
2022-08-16T05:34:21.232Z,98013.11
2022-08-16T05:36:51.300Z,98012.20
2022-08-16T05:39:20.529Z,98009.77
2022-08-16T05:41:47.780Z,98009.86
2022-08-16T05:44:22.981Z,98009.27
2022-08-16T05:46:54.143Z,98010.88
2022-08-16T05:49:22.357Z,98015.95
2022-08-16T05:51:54.382Z,98011.15
2022-08-16T05:54:24.753Z,98010.41
2022-08-16T05:56:53.306Z,98007.67
2022-08-16T05:59:22.119Z,98015.02
2022-08-16T06:01:50.315Z,98014.33
2022-08-16T06:04:36.232Z,98016.29
2022-08-16T06:07:26.220Z,98015.19
2022-08-16T06:10:33.129Z,98018.29
2022-08-16T06:13:03.525Z,98018.55
2022-08-16T06:15:31.237Z,98023.16
2022-08-16T06:17:58.865Z,98025.77
2022-08-16T06:20:35.187Z,98027.11
2022-08-16T06:23:17.883Z,98035.36
2022-08-16T06:25:56.152Z,98035.02
2022-08-16T06:28:34.798Z,98034.98
2022-08-16T06:31:06.019Z,98034.39
2022-08-16T06:33:41.330Z,98032.44
2022-08-16T06:36:11.005Z,98031.45
2022-08-16T06:38:38.732Z,98031.63
2022-08-16T06:41:27.425Z,98032.34
2022-08-16T06:43:56.072Z,98029.99
2022-08-16T06:46:34.105Z,98026.70
2022-08-16T06:49:05.569Z,98023.96
2022-08-16T06:51:45.169Z,98023.27
2022-08-16T06:54:14.530Z,98021.73
2022-08-16T06:56:42.053Z,98018.09
2022-08-16T06:59:11.344Z,98013.99
2022-08-16T07:01:54.666Z,98012.75
2022-08-16T07:04:32.088Z,98010.19
2022-08-16T07:07:05.769Z,98010.53
2022-08-16T07:09:33.057Z,98010.41
2022-08-16T07:12:03.447Z,98011.70
2022-08-16T07:14:34.985Z,98016.26
2022-08-16T07:17:08.305Z,98012.90
2022-08-16T07:20:03.562Z,98018.41
2022-08-16T07:22:37.668Z,98020.25
2022-08-16T07:25:12.848Z,98021.09
2022-08-16T07:27:41.429Z,98021.66
2022-08-16T07:30:39.194Z,98021.95
2022-08-16T07:33:01.837Z,98021.90
2022-08-16T07:35:29.945Z,98020.14
2022-08-16T07:37:56.958Z,98021.00
2022-08-16T07:40:58.009Z,98022.23
2022-08-16T07:43:17.062Z,98019.89
2022-08-16T07:45:46.217Z,98017.38
2022-08-16T07:48:20.271Z,98018.52
2022-08-16T07:50:57.808Z,98016.45
2022-08-16T07:53:29.047Z,98009.28
2022-08-16T07:55:57.700Z,98012.55
2022-08-16T07:58:35.128Z,98010.81
2022-08-16T08:01:10.969Z,98017.67
2022-08-16T08:03:49.660Z,98017.48
2022-08-16T08:06:22.648Z,98017.95
2022-08-16T08:08:57.568Z,98015.70
2022-08-16T08:11:28.087Z,98016.89
2022-08-16T08:14:03.559Z,98014.63
2022-08-16T08:16:33.469Z,98004.30
2022-08-16T08:19:04.418Z,98000.34
2022-08-16T08:21:59.862Z,97996.48
2022-08-16T08:24:32.099Z,98004.73
2022-08-16T08:27:03.918Z,98002.92
2022-08-16T08:29:37.246Z,98003.39
2022-08-16T08:32:57.027Z,98009.48
2022-08-16T08:35:03.357Z,98004.54
2022-08-16T08:37:55.481Z,98012.45
2022-08-16T08:40:24.768Z,98022.52
2022-08-16T08:43:00.858Z,98022.77
2022-08-16T08:45:52.706Z,98025.90
2022-08-16T08:48:33.481Z,98033.41
2022-08-16T08:51:09.647Z,98043.59
2022-08-16T08:53:57.634Z,98046.91
2022-08-16T08:56:32.241Z,98048.61
2022-08-16T08:59:13.433Z,98051.64
2022-08-16T09:01:57.175Z,98049.41
2022-08-16T09:04:33.115Z,98047.06
2022-08-16T09:07:03.514Z,98044.73
2022-08-16T09:09:34.208Z,98042.87
2022-08-16T09:12:35.348Z,98036.70
2022-08-16T09:15:03.471Z,98043.75
2022-08-16T09:17:48.776Z,98048.77
2022-08-16T09:20:18.651Z,98049.81
2022-08-16T09:22:51.371Z,98051.54
2022-08-16T09:25:26.303Z,98058.39
2022-08-16T09:28:02.420Z,98062.30
2022-08-16T09:30:43.408Z,98052.95
2022-08-16T09:33:11.777Z,98056.59
2022-08-16T09:35:39.406Z,98055.30
2022-08-16T09:38:12.046Z,98050.39
2022-08-16T09:40:43.291Z,98048.66
2022-08-16T09:43:44.732Z,98051.52
2022-08-16T09:45:59.929Z,98040.02
2022-08-16T09:48:44.419Z,98040.45
2022-08-16T09:51:15.205Z,98033.70
2022-08-16T09:53:43.136Z,98032.64
2022-08-16T09:56:17.756Z,98045.27
2022-08-16T09:59:05.153Z,98042.58
2022-08-16T10:01:33.387Z,98046.16
2022-08-16T10:04:01.110Z,98048.14
2022-08-16T10:06:33.077Z,98043.89
2022-08-16T10:09:06.792Z,98049.75
2022-08-16T10:11:55.151Z,98045.95
2022-08-16T10:14:24.350Z,98038.92
2022-08-16T10:16:59.644Z,98032.70
2022-08-16T10:19:29.213Z,98032.30
2022-08-16T10:21:59.466Z,98028.58
2022-08-16T10:24:33.167Z,98033.44
2022-08-16T10:27:25.336Z,98037.30
2022-08-16T10:30:01.242Z,98039.41
2022-08-16T10:32:33.709Z,98034.38
2022-08-16T10:35:03.116Z,98034.04
2022-08-16T10:37:32.697Z,98033.42
2022-08-16T10:40:06.202Z,98026.00
2022-08-16T10:42:53.458Z,98025.30
2022-08-16T10:45:21.194Z,98029.10
2022-08-16T10:48:00.666Z,98024.38
2022-08-16T10:50:31.790Z,98023.28
2022-08-16T10:52:59.660Z,98027.41
2022-08-16T10:55:44.624Z,98031.83
2022-08-16T10:58:13.622Z,98036.63
2022-08-16T11:00:44.225Z,98037.11
2022-08-16T11:06:06.376Z,98029.10
2022-08-16T11:08:41.972Z,98032.73
2022-08-16T11:11:19.429Z,98032.16
2022-08-16T11:14:10.694Z,98036.88
2022-08-16T11:19:23.159Z,98036.73
2022-08-16T11:24:43.209Z,98039.88
2022-08-16T11:27:23.993Z,98041.14
2022-08-16T11:29:53.522Z,98040.57
2022-08-16T11:32:28.405Z,98036.21
2022-08-16T11:35:13.488Z,98036.48
2022-08-16T11:38:23.296Z,98034.05
2022-08-16T11:40:52.736Z,98027.70
2022-08-16T11:43:22.974Z,98022.52
2022-08-16T11:45:54.223Z,98018.27
2022-08-16T11:48:24.107Z,98013.91
2022-08-16T11:50:51.230Z,98013.85
2022-08-16T11:53:19.019Z,98010.65
2022-08-16T11:55:46.245Z,98010.83
2022-08-16T11:58:18.207Z,98003.38
2022-08-16T12:00:51.829Z,98004.33
2022-08-16T12:03:31.557Z,98003.63
2022-08-16T12:06:30.360Z,98001.91
2022-08-16T12:09:01.736Z,97990.58
2022-08-16T12:11:31.671Z,97990.52
2022-08-16T12:14:04.297Z,97999.82
2022-08-16T12:16:34.422Z,98001.38
2022-08-16T12:19:10.418Z,98011.77
2022-08-16T12:21:59.157Z,98014.41
2022-08-16T12:24:25.982Z,98014.04
2022-08-16T12:26:53.322Z,98021.52
2022-08-16T12:29:21.009Z,98028.61
2022-08-16T12:31:59.368Z,98013.02
2022-08-16T12:34:39.347Z,98020.48
2022-08-16T12:37:17.993Z,98026.96
2022-08-16T12:39:47.116Z,98023.70
2022-08-16T12:42:19.124Z,98030.34
2022-08-16T12:44:49.045Z,98026.13
2022-08-16T12:47:36.981Z,98022.33
2022-08-16T12:50:05.582Z,98019.25
2022-08-16T12:52:41.352Z,98017.66
2022-08-16T12:55:11.432Z,98021.88
2022-08-16T12:57:41.653Z,98020.09
2022-08-16T13:00:26.460Z,98037.17
2022-08-16T13:02:54.084Z,98051.52
2022-08-16T13:05:21.838Z,98045.88
2022-08-16T13:07:51.644Z,98036.73
2022-08-16T13:10:37.955Z,98022.41
2022-08-16T13:13:06.953Z,98021.39
2022-08-16T13:15:57.159Z,98021.91
2022-08-16T13:18:34.696Z,98026.02
2022-08-16T13:21:04.851Z,98041.91
2022-08-16T13:23:35.871Z,98051.92
2022-08-16T13:26:04.158Z,98053.28
2022-08-16T13:28:32.139Z,98043.98
2022-08-16T13:30:59.628Z,98044.20
2022-08-16T13:33:30.359Z,98047.88
2022-08-16T13:35:58.923Z,98048.19
2022-08-16T13:38:37.294Z,98041.73
2022-08-16T13:41:08.441Z,98033.47
2022-08-16T13:43:37.478Z,98021.49
2022-08-16T13:46:05.252Z,98008.64
2022-08-16T13:48:42.867Z,97996.67
2022-08-16T13:51:16.752Z,98008.66
2022-08-16T13:53:54.608Z,98026.20
2022-08-16T13:56:34.551Z,98032.79
2022-08-16T13:59:19.378Z,98034.90
2022-08-16T14:01:54.417Z,98038.55
2022-08-16T14:04:26.056Z,98049.54
2022-08-16T14:06:56.327Z,98066.28
2022-08-16T14:09:23.716Z,98080.03
2022-08-16T14:11:53.208Z,98094.73
2022-08-16T14:14:21.645Z,98107.50
2022-08-16T14:17:00.147Z,98124.43
2022-08-16T14:19:29.521Z,98126.71
2022-08-16T14:22:13.666Z,98127.31
2022-08-16T14:24:47.124Z,98133.82
2022-08-16T14:27:18.619Z,98130.64
2022-08-16T14:29:49.742Z,98119.05
2022-08-16T14:32:34.470Z,98122.09
2022-08-16T14:35:05.475Z,98133.64
2022-08-16T14:37:35.013Z,98145.44
2022-08-16T14:40:07.319Z,98146.17
2022-08-16T14:42:36.797Z,98151.31
2022-08-16T14:45:07.039Z,98163.20
2022-08-16T14:47:37.807Z,98163.70
2022-08-16T14:50:07.130Z,98162.49
2022-08-16T14:52:54.579Z,98155.13
2022-08-16T14:55:23.628Z,98153.83
2022-08-16T14:57:54.444Z,98152.50
2022-08-16T15:00:22.551Z,98146.50
2022-08-16T15:03:05.244Z,98141.60
2022-08-16T15:05:33.315Z,98143.39
2022-08-16T15:08:02.129Z,98143.23
2022-08-16T15:10:32.195Z,98148.47
2022-08-16T15:13:00.816Z,98149.77
2022-08-16T15:15:28.822Z,98147.39
2022-08-16T15:17:57.459Z,98147.23
2022-08-16T15:20:26.598Z,98151.39
2022-08-16T15:22:54.745Z,98145.40
2022-08-16T15:25:29.335Z,98147.57
2022-08-16T15:28:01.933Z,98149.29
2022-08-16T15:30:56.738Z,98149.75
2022-08-16T15:33:18.148Z,98143.05
2022-08-16T15:35:47.577Z,98140.55
2022-08-16T15:38:57.962Z,98143.48
2022-08-16T15:41:02.744Z,98142.00
2022-08-16T15:43:39.368Z,98149.60
2022-08-16T15:46:35.230Z,98146.34
2022-08-16T15:49:12.628Z,98148.09
2022-08-16T15:51:43.547Z,98150.38
2022-08-16T15:54:29.760Z,98146.90
2022-08-16T15:57:01.590Z,98151.60
2022-08-16T15:59:47.944Z,98154.15
2022-08-16T16:02:19.460Z,98150.45
2022-08-16T16:04:56.764Z,98143.33
2022-08-16T16:07:24.633Z,98147.02
2022-08-16T16:09:53.280Z,98151.23
2022-08-16T16:12:54.152Z,98159.94
2022-08-16T16:15:07.417Z,98155.23
2022-08-16T16:17:35.242Z,98148.35
2022-08-16T16:20:04.541Z,98145.94
2022-08-16T16:22:33.009Z,98144.55
2022-08-16T16:25:02.735Z,98150.57
2022-08-16T16:27:31.736Z,98159.09
2022-08-16T16:30:02.372Z,98158.61
2022-08-16T16:32:35.057Z,98155.41
2022-08-16T16:35:03.928Z,98157.27
2022-08-16T16:37:33.030Z,98160.40
2022-08-16T16:40:00.996Z,98156.56
2022-08-16T16:42:34.827Z,98148.59
2022-08-16T16:45:08.420Z,98150.46
2022-08-16T16:47:41.702Z,98152.13
2022-08-16T16:50:09.764Z,98150.85
2022-08-16T16:52:44.020Z,98140.30
2022-08-16T16:55:13.110Z,98138.98
2022-08-16T16:58:00.908Z,98143.30
2022-08-16T17:00:38.474Z,98157.98
2022-08-16T17:03:17.146Z,98167.11
2022-08-16T17:05:57.084Z,98176.55
2022-08-16T17:08:30.676Z,98175.80
2022-08-16T17:10:57.739Z,98170.80
2022-08-16T17:13:24.986Z,98172.55
2022-08-16T17:15:52.767Z,98177.58
2022-08-16T17:19:14.457Z,98180.04
2022-08-16T17:21:08.547Z,98178.11
2022-08-16T17:23:58.153Z,98176.41
2022-08-16T17:26:23.115Z,98173.37
2022-08-16T17:29:02.747Z,98178.09
2022-08-16T17:31:43.340Z,98176.59
2022-08-16T17:34:30.591Z,98180.67
2022-08-16T17:37:00.282Z,98184.67
2022-08-16T17:39:29.655Z,98191.31
2022-08-16T17:41:58.449Z,98184.63
2022-08-16T17:44:25.298Z,98182.45
2022-08-16T17:46:53.154Z,98181.07
2022-08-16T17:49:21.162Z,98182.10
2022-08-16T17:51:48.380Z,98178.77
2022-08-16T17:54:20.522Z,98183.73
2022-08-16T17:57:00.851Z,98192.88
2022-08-16T17:59:29.282Z,98198.11
2022-08-16T18:01:58.189Z,98203.79
2022-08-16T18:04:48.429Z,98207.65
2022-08-16T18:07:12.748Z,98208.61
2022-08-16T18:09:41.020Z,98205.09
2022-08-16T18:12:41.586Z,98207.63
2022-08-16T18:15:03.206Z,98205.54
2022-08-16T18:17:30.356Z,98207.52
2022-08-16T18:19:57.580Z,98211.35
2022-08-16T18:22:30.686Z,98211.48
2022-08-16T18:24:58.334Z,98213.85
2022-08-16T18:27:27.312Z,98217.86
2022-08-16T18:29:57.578Z,98220.81
2022-08-16T18:32:25.250Z,98231.44
2022-08-16T18:34:54.403Z,98233.05
2022-08-16T18:37:25.579Z,98236.23
2022-08-16T18:39:52.856Z,98235.02
2022-08-16T18:42:21.120Z,98234.86
2022-08-16T18:44:49.376Z,98228.38
2022-08-16T18:47:16.503Z,98234.14
2022-08-16T18:49:43.584Z,98235.94
2022-08-16T18:52:15.005Z,98228.77
2022-08-16T18:55:02.386Z,98226.61
2022-08-16T18:57:40.038Z,98226.23
2022-08-16T19:00:11.780Z,98229.41
2022-08-16T19:02:57.428Z,98220.86
2022-08-16T19:05:27.423Z,98223.79
2022-08-16T19:07:54.940Z,98221.73
2022-08-16T19:10:22.087Z,98226.98
2022-08-16T19:12:49.406Z,98224.32
2022-08-16T19:15:18.866Z,98228.08
2022-08-16T19:17:46.207Z,98226.02
2022-08-16T19:20:15.463Z,98223.27
2022-08-16T19:25:47.463Z,98221.88
2022-08-16T19:28:52.087Z,98221.30
2022-08-16T19:31:22.993Z,98218.07
2022-08-16T19:33:53.462Z,98222.52
2022-08-16T19:36:30.490Z,98218.13
2022-08-16T19:39:04.356Z,98220.63
2022-08-16T19:41:36.943Z,98218.83
2022-08-16T19:44:05.326Z,98220.54
2022-08-16T19:46:32.473Z,98220.34
2022-08-16T19:48:59.644Z,98222.35
2022-08-16T19:51:26.770Z,98222.66
2022-08-16T19:53:53.825Z,98221.27
2022-08-16T19:56:23.326Z,98220.92
2022-08-16T19:59:17.435Z,98221.09
2022-08-16T20:01:42.027Z,98215.20
2022-08-16T20:04:12.898Z,98214.38
2022-08-16T20:06:43.808Z,98217.05
2022-08-16T20:09:15.889Z,98220.27
2022-08-16T20:11:47.081Z,98222.21
2022-08-16T20:14:24.283Z,98224.77
2022-08-16T20:16:57.174Z,98226.27
2022-08-16T20:19:27.459Z,98232.05
2022-08-16T20:21:56.567Z,98228.05
2022-08-16T20:24:33.962Z,98228.34
2022-08-16T20:27:03.295Z,98228.55
2022-08-16T20:29:30.420Z,98234.23
2022-08-16T20:31:57.870Z,98236.42
2022-08-16T20:34:25.033Z,98236.14
2022-08-16T20:36:52.006Z,98236.30
2022-08-16T20:39:19.014Z,98234.08
2022-08-16T20:41:46.057Z,98234.20
2022-08-16T20:44:13.157Z,98237.42
2022-08-16T20:46:40.236Z,98234.55
2022-08-16T20:49:09.001Z,98233.83
2022-08-16T20:51:50.936Z,98236.27
2022-08-16T20:54:19.321Z,98234.06
2022-08-16T20:56:46.393Z,98237.77
2022-08-16T20:59:13.615Z,98237.67
2022-08-16T21:01:46.495Z,98236.14
2022-08-16T21:04:21.728Z,98238.46
2022-08-16T21:06:54.178Z,98240.33
2022-08-16T21:09:23.008Z,98239.87
2022-08-16T21:11:51.093Z,98238.21
2022-08-16T21:14:18.328Z,98243.45
2022-08-16T21:16:46.193Z,98242.60
2022-08-16T21:19:13.578Z,98243.05
2022-08-16T21:21:40.698Z,98242.44
2022-08-16T21:24:08.103Z,98242.39
2022-08-16T21:26:38.909Z,98242.77
2022-08-16T21:29:06.639Z,98242.48
2022-08-16T21:31:40.491Z,98242.61
2022-08-16T21:34:08.357Z,98240.80
2022-08-16T21:36:36.465Z,98241.20
2022-08-16T21:39:05.919Z,98243.52
2022-08-16T22:29:24.557Z,98227.32
2022-08-16T22:31:51.405Z,98228.65
2022-08-16T22:34:19.140Z,98224.45
2022-08-16T22:36:46.184Z,98221.40
2022-08-16T22:39:13.552Z,98223.54
2022-08-16T22:41:41.922Z,98219.08
2022-08-16T22:44:08.686Z,98217.99
2022-08-16T22:46:36.256Z,98212.17
2022-08-16T22:49:06.987Z,98210.23
2022-08-16T22:51:34.102Z,98208.61
2022-08-16T22:54:01.174Z,98205.15
2022-08-16T22:56:48.211Z,98208.99
2022-08-16T22:59:15.113Z,98207.64
2022-08-16T23:01:42.124Z,98200.84
2022-08-16T23:04:09.020Z,98200.89
2022-08-16T23:06:38.299Z,98201.10
2022-08-16T23:09:05.349Z,98202.34
2022-08-16T23:11:32.226Z,98203.84
2022-08-16T23:13:59.367Z,98206.42
2022-08-16T23:16:33.261Z,98203.11
2022-08-16T23:19:03.570Z,98203.48
2022-08-16T23:21:31.541Z,98202.52
2022-08-16T23:23:58.391Z,98207.19
2022-08-16T23:26:44.269Z,98216.36
2022-08-16T23:29:15.944Z,98219.18
2022-08-16T23:31:50.458Z,98220.44
2022-08-16T23:34:21.697Z,98219.39
2022-08-16T23:36:48.461Z,98216.02
2022-08-16T23:39:15.299Z,98216.36
2022-08-16T23:41:43.457Z,98213.40
2022-08-16T23:44:56.818Z,98213.05
2022-08-16T23:46:59.183Z,98211.11
2022-08-16T23:50:00.199Z,98209.48
2022-08-16T23:52:12.820Z,98213.29
2022-08-16T23:54:39.859Z,98208.48
2022-08-16T23:57:07.927Z,98204.74
2022-08-16T23:59:37.445Z,98199.10
